Escola de vôo
Dean International

Program Pricing

Bem Vindos a Dean International

Durante mais de 20 anos a Dean International educou mais de 7,000 pilotos de todas as partes do mundo. Oferecendo treinamento de grande qualidade, uma equipe muito amigável, uma ampla variedade de aviões e sempre procurando melhorar, conseguimos virar uma das maiores e mais prestigiadas escola de aviação aprovada pelo FAA. Situada no Aeroporto Executivo Kendall-Tamiami em Miami, Florida, nossa escola de aviação oferece um ambiente ideal para aprender a voar o ano inteiro e estamos bem equipados para prestar serviços aos alunos da comunidade geral de aviação. Visite-nos ou contacte-nos hoje para obter mais informações sobre nossos diferentes programas e serviços ou leia mais sobre nossos programas se você é um estudante internacional interessado em unir-se a nossa escola.
Tiempo Local
TAF FOR KTMB (Issued: Sun, July 31st 2016 3:03 AM UTC)
TAF
      AMD KTMB 310301Z 3103/3124 12008KT P6SM FEW035 BKN160
      FM310800 VRB03KT P6SM VCSH FEW035 SCT250
      FM311200 VRB05KT P6SM VCSH FEW030 SCT250
      FM311600 13010KT P6SM VCSH SCT025 SCT100 BKN250
     
METAR FOR KTMB (Issued: Sun, July 31st 2016 2:53 AM UTC):
KTMB 310253Z AUTO 12008KT 10SM CLR 28/24 A3008 RMK AO2 SLP185 T02780239 53011 TSNO

This weather information is provided by the National Weather Service.
It is automatically refreshed every three minutes.
TAF FOR KHST (Issued: Sun, July 31st 2016 12:07 AM UTC)
TAF KHST 310000Z 3100/0106 10009KT 9999 FEW025 SCT200 QNH3002INS
      BECMG 3103/3104 10006KT 9999 SCT020 QNH3003INS
      BECMG 3111/3112 12015KT 9000 -SHRA FEW020 QNH3001INS
      TEMPO 3114/3118 12012G18KT 6000 -TSRA BKN030CB
      BECMG 3120/3121 09009KT 9999 NSW FEW030 QNH3003INS TX33/0100Z TN26/3109Z
     
METAR FOR KHST (Issued: Sun, July 31st 2016 2:58 AM UTC):
KHST 310258Z AUTO 13003KT 10SM OVC190 28/23 A3008 RMK AO2 SLP189 T02780233 53013

This weather information is provided by the National Weather Service.
It is automatically refreshed every three minutes.
TAF FOR KOPF (Issued: Sun, July 31st 2016 3:03 AM UTC)
TAF
      AMD KOPF 310301Z 3103/3124 14006KT P6SM FEW050 SCT250
      FM310800 VRB03KT P6SM VCSH FEW035 SCT250
      FM311200 VRB05KT P6SM VCSH FEW030 SCT250
      FM311600 13008KT P6SM VCSH SCT025 SCT100 BKN250
     
METAR FOR KOPF (Issued: Sun, July 31st 2016 2:53 AM UTC):
KOPF 310253Z AUTO 15009KT 10SM CLR 28/23 A3009 RMK AO2 SLP188 T02830233 53012

This weather information is provided by the National Weather Service.
It is automatically refreshed every three minutes.
TAF FOR KMIA (Issued: Sun, July 31st 2016 3:06 AM UTC)
TAF
      AMD KMIA 310301Z 3103/3124 10006KT P6SM FEW030 BKN160 OVC200
      FM310800 VRB05KT P6SM VCSH FEW030 SCT250
      FM311600 12012KT P6SM VCSH SCT025 SCT100 BKN250
     
METAR FOR KMIA (Issued: Sun, July 31st 2016 2:53 AM UTC):
KMIA 310253Z 10007KT 10SM FEW030 BKN160 OVC200 28/23 A3008 RMK AO2 RAB19E31 SLP187 P0000 60000 T02830233 53011

This weather information is provided by the National Weather Service.
It is automatically refreshed every three minutes.
Desenhado por Ariel Llizo
© Dean International Inc. 2012